createdAt,value
2018-06-19T00:01:32.267Z,17.60
2018-06-19T00:04:01.319Z,17.60
2018-06-19T00:06:30.412Z,17.50
2018-06-19T00:08:59.467Z,17.50
2018-06-19T00:11:28.580Z,17.50
2018-06-19T00:16:26.249Z,17.50
2018-06-19T00:21:29.388Z,17.50
2018-06-19T00:23:58.452Z,17.50
2018-06-19T00:28:56.252Z,17.40
2018-06-19T00:31:25.348Z,17.40
2018-06-19T00:33:54.359Z,17.40
2018-06-19T00:36:23.404Z,17.30
2018-06-19T00:38:52.442Z,17.20
2018-06-19T00:41:21.484Z,17.10
2018-06-19T00:43:50.492Z,17.10
2018-06-19T00:46:21.411Z,17.00
2018-06-19T00:48:50.456Z,17.00
2018-06-19T00:51:19.525Z,16.90
2018-06-19T00:56:28.408Z,16.90
2018-06-19T00:58:57.400Z,16.80
2018-06-19T01:01:26.418Z,16.80
2018-06-19T01:03:55.515Z,16.80
2018-06-19T01:06:24.556Z,16.80
2018-06-19T01:08:53.571Z,16.70
2018-06-19T01:11:22.599Z,16.70
2018-06-19T01:13:51.636Z,16.70
2018-06-19T01:16:20.675Z,16.60
2018-06-19T01:18:49.741Z,16.60
2018-06-19T01:21:18.759Z,16.60
2018-06-19T01:23:47.803Z,16.50
2018-06-19T01:28:45.616Z,16.60
2018-06-19T01:31:14.666Z,16.60
2018-06-19T01:33:43.683Z,16.60
2018-06-19T01:36:12.728Z,16.60
2018-06-19T01:38:41.729Z,16.50
2018-06-19T01:41:10.799Z,16.50
2018-06-19T01:43:39.811Z,16.50
2018-06-19T01:46:08.829Z,16.40
2018-06-19T01:48:37.880Z,16.40
2018-06-19T01:51:06.927Z,16.40
2018-06-19T01:53:35.960Z,16.30
2018-06-19T01:56:05.039Z,16.30
2018-06-19T01:58:34.051Z,16.30
2018-06-19T02:01:03.219Z,16.30
2018-06-19T02:03:32.244Z,16.20
2018-06-19T02:06:01.251Z,16.20
2018-06-19T02:08:30.287Z,16.20
2018-06-19T02:10:59.315Z,16.10
2018-06-19T02:13:28.361Z,16.10
2018-06-19T02:15:57.380Z,16.10
2018-06-19T02:18:26.431Z,16.10
2018-06-19T02:20:55.491Z,16.10
2018-06-19T02:23:24.504Z,16.00
2018-06-19T02:25:53.580Z,16.00
2018-06-19T02:28:22.595Z,16.00
2018-06-19T02:30:51.708Z,15.90
2018-06-19T02:33:20.748Z,15.90
2018-06-19T02:35:49.815Z,15.90
2018-06-19T02:38:19.374Z,15.90
2018-06-19T02:40:48.449Z,15.80
2018-06-19T02:43:17.456Z,15.80
2018-06-19T02:45:46.507Z,15.80
2018-06-19T02:48:15.522Z,15.80
2018-06-19T02:50:44.568Z,15.80
2018-06-19T02:53:13.624Z,15.80
2018-06-19T02:55:43.014Z,15.80
2018-06-19T02:58:12.031Z,15.80
2018-06-19T03:00:41.045Z,15.70
2018-06-19T03:03:10.093Z,15.80
2018-06-19T03:05:39.107Z,15.80
2018-06-19T03:08:08.146Z,15.80
2018-06-19T03:10:37.231Z,15.80
2018-06-19T03:13:06.272Z,15.90
2018-06-19T03:15:35.295Z,15.90
2018-06-19T03:18:04.369Z,15.90
2018-06-19T03:20:33.390Z,15.90
2018-06-19T03:23:02.437Z,15.80
2018-06-19T03:25:31.531Z,15.90
2018-06-19T03:30:29.361Z,16.00
2018-06-19T03:32:58.357Z,16.00
2018-06-19T03:35:27.380Z,16.00
2018-06-19T03:37:56.419Z,16.10
2018-06-19T03:40:25.435Z,16.10
2018-06-19T03:42:54.523Z,16.10
2018-06-19T03:45:23.534Z,16.10
2018-06-19T03:47:52.585Z,16.10
2018-06-19T03:50:21.629Z,16.20
2018-06-19T03:52:50.679Z,16.20
2018-06-19T03:55:19.700Z,16.20
2018-06-19T03:57:48.771Z,16.20
2018-06-19T04:00:17.891Z,16.20
2018-06-19T04:02:46.928Z,16.20
2018-06-19T04:05:15.946Z,16.20
2018-06-19T04:07:45.009Z,16.20
2018-06-19T04:10:14.088Z,16.20
2018-06-19T04:12:43.220Z,16.20
2018-06-19T04:15:12.266Z,16.20
2018-06-19T04:17:41.311Z,16.30
2018-06-19T04:22:39.008Z,16.30
2018-06-19T04:25:08.031Z,16.30
2018-06-19T04:27:37.078Z,16.30
2018-06-19T04:30:06.144Z,16.30
2018-06-19T04:32:35.206Z,16.30
2018-06-19T04:35:04.284Z,16.40
2018-06-19T04:37:33.327Z,16.40
2018-06-19T04:40:02.364Z,16.40
2018-06-19T04:42:31.404Z,16.40
2018-06-19T04:45:00.416Z,16.50
2018-06-19T04:47:29.465Z,16.50
2018-06-19T04:49:58.520Z,16.50
2018-06-19T04:52:27.564Z,16.60
2018-06-19T04:54:56.595Z,16.60
2018-06-19T04:57:25.635Z,16.70
2018-06-19T04:59:54.649Z,16.70
2018-06-19T05:02:23.728Z,16.70
2018-06-19T05:04:52.759Z,16.80
2018-06-19T05:07:21.809Z,16.90
2018-06-19T05:09:50.824Z,17.00
2018-06-19T05:12:19.875Z,17.10
2018-06-19T05:14:48.896Z,17.20
2018-06-19T05:17:17.977Z,17.30
2018-06-19T05:19:47.093Z,17.40
2018-06-19T05:22:16.132Z,17.50
2018-06-19T05:24:45.176Z,17.50
2018-06-19T05:27:14.231Z,17.50
2018-06-19T05:29:43.249Z,17.50
2018-06-19T05:32:12.296Z,17.50
2018-06-19T05:34:41.344Z,17.40
2018-06-19T05:37:10.400Z,17.40
2018-06-19T05:39:39.415Z,17.40
2018-06-19T05:42:08.478Z,17.40
2018-06-19T05:44:37.484Z,17.40
2018-06-19T05:47:06.623Z,17.50
2018-06-19T05:49:35.644Z,17.50
2018-06-19T05:52:04.713Z,17.50
2018-06-19T05:54:34.241Z,17.50
2018-06-19T05:57:03.319Z,17.60
2018-06-19T05:59:32.407Z,17.60
2018-06-19T06:02:01.440Z,17.70
2018-06-19T06:04:30.528Z,17.70
2018-06-19T06:06:59.540Z,17.70
2018-06-19T06:09:28.594Z,17.80
2018-06-19T06:11:57.601Z,17.80
2018-06-19T06:14:26.649Z,17.80
2018-06-19T06:16:55.676Z,18.00
2018-06-19T06:19:24.886Z,18.10
2018-06-19T06:21:54.252Z,18.20
2018-06-19T06:24:23.352Z,18.20
2018-06-19T06:29:21.105Z,18.40
2018-06-19T06:31:50.225Z,18.50
2018-06-19T06:34:19.279Z,18.50
2018-06-19T06:36:48.301Z,18.60
2018-06-19T06:39:17.512Z,18.70
2018-06-19T06:41:46.579Z,18.80
2018-06-19T06:44:15.647Z,18.80
2018-06-19T06:46:44.747Z,18.90
2018-06-19T06:49:13.825Z,19.00
2018-06-19T06:51:42.860Z,19.10
2018-06-19T06:54:11.937Z,19.20
2018-06-19T06:56:41.012Z,19.30
2018-06-19T06:59:10.271Z,19.40
2018-06-19T07:01:39.414Z,19.50
2018-06-19T07:04:08.813Z,19.50
2018-06-19T07:06:37.965Z,19.50
2018-06-19T07:09:09.096Z,19.50
2018-06-19T07:11:38.244Z,19.40
2018-06-19T07:14:07.788Z,19.50
2018-06-19T07:16:37.245Z,19.60
2018-06-19T07:19:06.611Z,19.60
2018-06-19T07:21:35.718Z,19.50
2018-06-19T07:26:33.857Z,19.50
2018-06-19T07:29:03.493Z,19.40
2018-06-19T07:31:32.559Z,19.40
2018-06-19T07:34:01.691Z,19.50
2018-06-19T07:36:30.758Z,19.60
2018-06-19T07:38:59.882Z,19.60
2018-06-19T07:41:29.081Z,19.60
2018-06-19T07:43:58.389Z,19.70
2018-06-19T07:46:27.519Z,19.80
2018-06-19T07:48:56.580Z,20.10
2018-06-19T07:51:25.650Z,20.20
2018-06-19T07:53:55.862Z,20.40
2018-06-19T07:56:25.054Z,20.50
2018-06-19T07:58:54.370Z,20.50
2018-06-19T08:01:23.629Z,20.50
2018-06-19T08:03:52.993Z,20.40
2018-06-19T08:06:22.448Z,20.40
2018-06-19T08:08:51.581Z,20.50
2018-06-19T08:11:20.912Z,20.60
2018-06-19T08:13:50.035Z,20.60
2018-06-19T08:16:19.423Z,20.70
2018-06-19T08:18:48.681Z,20.90
2018-06-19T08:21:18.078Z,21.00
2018-06-19T08:23:47.335Z,21.10
2018-06-19T08:26:16.486Z,21.10
2018-06-19T08:28:45.996Z,21.20
2018-06-19T08:31:15.360Z,21.30
2018-06-19T08:33:44.652Z,21.50
2018-06-19T08:36:14.343Z,21.60
2018-06-19T08:38:43.907Z,21.70
2018-06-19T08:41:13.400Z,21.80
2018-06-19T08:43:43.825Z,21.90
2018-06-19T08:46:13.261Z,21.70
2018-06-19T08:48:42.363Z,21.50
2018-06-19T08:51:11.620Z,21.30
2018-06-19T08:53:40.744Z,21.40
2018-06-19T09:01:07.537Z,21.60
2018-06-19T09:03:36.673Z,21.70
2018-06-19T09:06:05.801Z,21.70
2018-06-19T09:08:35.414Z,21.90
2018-06-19T09:11:04.603Z,21.90
2018-06-19T09:13:33.708Z,22.00
2018-06-19T09:16:02.862Z,21.90
2018-06-19T09:18:32.087Z,22.00
2018-06-19T09:21:01.352Z,21.90
2018-06-19T09:23:30.534Z,21.90
2018-06-19T09:25:59.656Z,21.90
2018-06-19T09:28:29.017Z,21.90
2018-06-19T09:30:58.154Z,21.90
2018-06-19T09:33:29.317Z,22.00
2018-06-19T09:35:58.371Z,22.00
2018-06-19T09:38:27.459Z,22.10
2018-06-19T09:40:56.650Z,22.20
2018-06-19T09:43:25.755Z,22.40
2018-06-19T09:45:55.079Z,22.60
2018-06-19T09:48:24.653Z,22.60
2018-06-19T09:50:54.890Z,22.60
2018-06-19T09:53:24.575Z,22.60
2018-06-19T09:55:54.247Z,22.40
2018-06-19T09:58:24.564Z,22.30
2018-06-19T10:00:56.360Z,22.30
2018-06-19T10:03:28.804Z,22.40
2018-06-19T10:05:59.297Z,22.60
2018-06-19T10:08:30.231Z,22.60
2018-06-19T10:11:00.283Z,22.70
2018-06-19T10:13:32.559Z,22.80
2018-06-19T10:16:01.685Z,22.90
2018-06-19T10:18:30.877Z,22.90
2018-06-19T10:20:59.931Z,22.90
2018-06-19T10:23:29.191Z,23.10
2018-06-19T10:25:59.787Z,23.10
2018-06-19T10:28:29.251Z,23.10
2018-06-19T10:30:58.968Z,23.10
2018-06-19T10:33:28.040Z,23.20
2018-06-19T10:35:57.122Z,23.30
2018-06-19T10:40:54.977Z,23.10
2018-06-19T10:43:24.001Z,23.00
2018-06-19T10:45:53.190Z,22.90
2018-06-19T10:48:22.500Z,22.80
2018-06-19T10:50:51.562Z,22.70
2018-06-19T10:53:20.588Z,22.60
2018-06-19T10:55:49.923Z,22.60
2018-06-19T10:58:19.299Z,22.50
2018-06-19T11:00:48.319Z,22.50
2018-06-19T11:03:17.403Z,22.50
2018-06-19T11:05:46.464Z,22.40
2018-06-19T11:08:15.548Z,22.40
2018-06-19T11:10:44.631Z,22.30
2018-06-19T11:13:13.699Z,22.30
2018-06-19T11:15:42.727Z,22.20
2018-06-19T11:18:11.756Z,22.20
2018-06-19T11:20:40.829Z,22.10
2018-06-19T11:23:09.888Z,22.10
2018-06-19T11:25:38.960Z,21.90
2018-06-19T11:28:08.012Z,21.80
2018-06-19T11:30:37.068Z,21.60
2018-06-19T11:33:06.169Z,21.60
2018-06-19T11:35:35.293Z,21.60
2018-06-19T11:38:04.356Z,21.70
2018-06-19T11:40:33.383Z,21.90
2018-06-19T11:43:02.468Z,22.00
2018-06-19T11:45:31.505Z,22.10
2018-06-19T11:48:00.559Z,22.20
2018-06-19T11:50:29.568Z,22.20
2018-06-19T11:52:59.232Z,22.20
2018-06-19T11:55:28.252Z,22.20
2018-06-19T11:57:57.262Z,22.10
2018-06-19T12:00:26.362Z,22.30
2018-06-19T12:02:55.492Z,22.40
2018-06-19T12:05:24.500Z,22.50
2018-06-19T12:07:53.591Z,22.50
2018-06-19T12:10:22.713Z,22.40
2018-06-19T12:12:51.724Z,22.30
2018-06-19T12:15:21.088Z,22.20
2018-06-19T12:17:50.111Z,22.30
2018-06-19T12:20:19.128Z,22.40
2018-06-19T12:22:48.180Z,22.60
2018-06-19T12:25:17.264Z,22.80
2018-06-19T12:27:46.359Z,22.90
2018-06-19T12:30:15.378Z,23.00
2018-06-19T12:32:44.433Z,23.00
2018-06-19T12:35:14.389Z,23.00
2018-06-19T12:37:43.434Z,23.00
2018-06-19T12:40:12.462Z,23.10
2018-06-19T12:42:41.560Z,23.10
2018-06-19T12:45:10.651Z,23.10
2018-06-19T12:47:39.724Z,23.20
2018-06-19T12:52:21.511Z,23.20
2018-06-19T12:55:14.063Z,23.30
2018-06-19T12:57:43.175Z,23.30
2018-06-19T13:00:12.759Z,23.20
2018-06-19T13:02:51.780Z,23.30
2018-06-19T13:05:32.102Z,23.40
2018-06-19T13:08:01.147Z,23.40
2018-06-19T13:10:30.213Z,23.30
2018-06-19T13:13:35.150Z,23.20
2018-06-19T13:16:04.212Z,23.20
2018-06-19T13:18:44.928Z,23.10
2018-06-19T13:23:42.731Z,23.30
2018-06-19T13:26:11.720Z,23.30
2018-06-19T13:29:53.300Z,23.30
2018-06-19T13:32:22.838Z,23.20
2018-06-19T13:34:51.999Z,23.20
2018-06-19T13:37:21.118Z,23.20
2018-06-19T13:42:02.855Z,23.40
2018-06-19T13:44:43.119Z,23.60
2018-06-19T13:47:12.196Z,23.50
2018-06-19T13:49:41.273Z,23.50
2018-06-19T13:52:10.301Z,23.50
2018-06-19T13:54:39.371Z,23.40
2018-06-19T13:57:50.139Z,23.30
2018-06-19T14:00:20.576Z,23.40
2018-06-19T14:02:49.893Z,23.50
2018-06-19T14:05:19.749Z,23.50
2018-06-19T14:08:03.613Z,23.40
2018-06-19T14:13:03.121Z,23.40
2018-06-19T14:18:05.287Z,23.70
2018-06-19T14:20:34.411Z,23.80
2018-06-19T14:23:03.503Z,23.80
2018-06-19T14:25:32.523Z,23.90
2018-06-19T14:28:01.601Z,23.80
2018-06-19T14:30:30.660Z,23.70
2018-06-19T14:32:59.688Z,23.60
2018-06-19T14:35:28.765Z,23.50
2018-06-19T14:37:57.797Z,23.40
2018-06-19T14:40:26.908Z,23.30
2018-06-19T14:42:55.976Z,23.30
2018-06-19T14:45:25.293Z,23.30
2018-06-19T14:47:54.327Z,23.30
2018-06-19T14:50:23.472Z,23.40
2018-06-19T14:52:52.502Z,23.60
2018-06-19T14:55:21.563Z,23.80
2018-06-19T14:57:50.690Z,23.80
2018-06-19T15:00:19.988Z,23.90
2018-06-19T15:02:49.038Z,23.90
2018-06-19T15:05:18.658Z,23.90
2018-06-19T15:07:51.626Z,23.80
2018-06-19T15:10:20.944Z,23.60
2018-06-19T15:12:50.051Z,23.40
2018-06-19T15:15:19.099Z,23.20
2018-06-19T15:17:48.108Z,23.00
2018-06-19T15:20:17.459Z,22.90
2018-06-19T15:22:46.536Z,23.00
2018-06-19T15:25:15.633Z,23.10
2018-06-19T15:27:44.679Z,23.10
2018-06-19T15:30:13.733Z,23.10
2018-06-19T15:32:42.928Z,23.00
2018-06-19T15:35:12.212Z,22.90
2018-06-19T15:37:41.334Z,22.80
2018-06-19T15:40:10.465Z,22.70
2018-06-19T15:45:08.273Z,22.90
2018-06-19T15:47:37.306Z,23.10
2018-06-19T15:50:06.647Z,23.20
2018-06-19T15:52:35.781Z,23.30
2018-06-19T15:55:04.896Z,23.30
2018-06-19T15:57:33.976Z,23.10
2018-06-19T16:00:03.135Z,23.00
2018-06-19T16:02:32.190Z,22.90
2018-06-19T16:05:01.248Z,22.80
2018-06-19T16:07:30.515Z,22.70
2018-06-19T16:09:59.589Z,22.60
2018-06-19T16:12:28.656Z,22.50
2018-06-19T16:14:57.726Z,22.50
2018-06-19T16:17:26.886Z,22.60
2018-06-19T16:19:55.991Z,22.70
2018-06-19T16:22:25.056Z,22.60
2018-06-19T16:24:54.192Z,22.70
2018-06-19T16:27:23.339Z,22.80
2018-06-19T16:29:52.428Z,23.10
2018-06-19T16:32:21.514Z,23.10
2018-06-19T16:34:50.525Z,23.10
2018-06-19T16:37:19.628Z,23.00
2018-06-19T16:39:48.765Z,23.00
2018-06-19T16:44:46.698Z,22.90
2018-06-19T16:47:15.985Z,22.90
2018-06-19T16:49:44.995Z,23.00
2018-06-19T16:52:14.850Z,23.00
2018-06-19T16:54:44.011Z,23.10
2018-06-19T16:57:13.069Z,23.10
2018-06-19T16:59:42.171Z,23.10
2018-06-19T17:02:11.314Z,23.10
2018-06-19T17:04:40.385Z,22.90
2018-06-19T17:07:09.825Z,22.80
2018-06-19T17:12:07.667Z,22.60
2018-06-19T17:14:36.818Z,22.60
2018-06-19T17:19:34.686Z,22.50
2018-06-19T17:22:03.793Z,22.50
2018-06-19T17:27:01.873Z,22.40
2018-06-19T17:29:30.998Z,22.30
2018-06-19T17:32:00.093Z,22.30
2018-06-19T17:34:29.112Z,22.20
2018-06-19T17:36:58.168Z,22.10
2018-06-19T17:39:27.207Z,22.10
2018-06-19T17:41:56.270Z,22.10
2018-06-19T17:44:25.471Z,22.00
2018-06-19T17:46:54.653Z,21.90
2018-06-19T17:49:36.390Z,21.90
2018-06-19T17:52:05.471Z,21.90
2018-06-19T17:54:34.557Z,21.80
2018-06-19T17:57:03.701Z,21.80
2018-06-19T17:59:32.751Z,21.70
2018-06-19T18:02:01.957Z,21.70
2018-06-19T18:04:31.093Z,21.70
2018-06-19T18:07:00.327Z,21.70
2018-06-19T18:09:29.417Z,21.70
2018-06-19T18:11:58.609Z,21.70
2018-06-19T18:14:27.733Z,21.60
2018-06-19T18:16:57.052Z,21.60
2018-06-19T18:19:26.157Z,21.60
2018-06-19T18:21:55.324Z,21.50
2018-06-19T18:24:24.866Z,21.40
2018-06-19T18:26:53.919Z,21.40
2018-06-19T18:29:23.212Z,21.30
2018-06-19T18:32:05.744Z,21.30
2018-06-19T18:34:38.998Z,21.40
2018-06-19T18:37:11.064Z,21.30
2018-06-19T18:42:09.968Z,21.20
2018-06-19T18:47:07.962Z,21.10
2018-06-19T18:52:06.130Z,20.90
2018-06-19T18:54:35.194Z,20.80
2018-06-19T18:57:04.344Z,20.60
2018-06-19T18:59:33.443Z,20.50
2018-06-19T19:02:02.515Z,20.50
2018-06-19T19:04:31.548Z,20.40
2018-06-19T19:07:00.736Z,20.30
2018-06-19T19:09:29.953Z,20.20
2018-06-19T19:11:59.235Z,20.10
2018-06-19T19:14:32.713Z,20.00
2018-06-19T19:17:07.161Z,19.90
2018-06-19T19:19:36.380Z,19.80
2018-06-19T19:22:05.531Z,19.80
2018-06-19T19:24:34.639Z,19.70
2018-06-19T19:27:09.008Z,19.60
2018-06-19T19:29:43.670Z,19.50
2018-06-19T19:32:12.827Z,19.50
2018-06-19T19:34:42.060Z,19.40
2018-06-19T19:39:23.068Z,19.30
2018-06-19T19:41:52.501Z,19.20
2018-06-19T19:44:21.906Z,19.10
2018-06-19T19:46:56.509Z,19.00
2018-06-19T19:49:25.695Z,18.90
2018-06-19T19:51:54.919Z,18.80
2018-06-19T19:54:24.098Z,18.70
2018-06-19T19:56:58.465Z,18.60
2018-06-19T19:59:27.681Z,18.60
2018-06-19T20:01:56.894Z,18.50
2018-06-19T20:04:26.089Z,18.50
2018-06-19T20:09:23.899Z,18.40
2018-06-19T20:11:52.996Z,18.30
2018-06-19T20:14:22.226Z,18.30
2018-06-19T20:16:51.388Z,18.20
2018-06-19T20:19:20.665Z,18.10
2018-06-19T20:24:18.931Z,18.00
2018-06-19T20:26:48.147Z,18.00
2018-06-19T20:29:17.391Z,17.90
2018-06-19T20:31:46.629Z,17.90
2018-06-19T20:34:17.686Z,17.80
2018-06-19T20:36:47.269Z,17.70
2018-06-19T20:39:16.475Z,17.70
2018-06-19T20:41:45.886Z,17.60
2018-06-19T20:44:15.508Z,17.50
2018-06-19T20:46:44.677Z,17.40
2018-06-19T20:49:13.849Z,17.30
2018-06-19T20:51:43.418Z,17.20
2018-06-19T20:56:41.346Z,17.00
2018-06-19T20:59:10.590Z,17.00
2018-06-19T21:01:39.782Z,16.90
2018-06-19T21:04:08.971Z,16.80
2018-06-19T21:06:38.088Z,16.70
2018-06-19T21:09:08.227Z,16.60
2018-06-19T21:11:37.418Z,16.40
2018-06-19T21:14:06.548Z,16.30
2018-06-19T21:16:36.004Z,16.20
2018-06-19T21:19:05.089Z,16.20
2018-06-19T21:21:34.286Z,16.10
2018-06-19T21:24:03.389Z,16.00
2018-06-19T21:26:32.489Z,15.90
2018-06-19T21:29:01.551Z,15.80
2018-06-19T21:31:30.659Z,15.70
2018-06-19T21:33:59.741Z,15.70
2018-06-19T21:36:28.856Z,15.70
2018-06-19T21:38:57.859Z,15.70
2018-06-19T21:41:26.867Z,15.60
2018-06-19T21:43:56.314Z,15.60
2018-06-19T21:46:25.332Z,15.50
2018-06-19T21:48:54.414Z,15.40
2018-06-19T21:51:23.489Z,15.40
2018-06-19T21:53:52.659Z,15.40
2018-06-19T21:56:21.743Z,15.30
2018-06-19T21:58:50.776Z,15.30
2018-06-19T22:01:19.836Z,15.20
2018-06-19T22:06:18.135Z,15.10
2018-06-19T22:11:21.348Z,15.10
2018-06-19T22:16:19.035Z,15.00
2018-06-19T22:18:48.147Z,15.00
2018-06-19T22:21:17.191Z,14.90
2018-06-19T22:23:46.263Z,14.90
2018-06-19T22:26:15.274Z,14.90
2018-06-19T22:28:44.360Z,14.90
2018-06-19T22:31:13.438Z,14.90
2018-06-19T22:33:42.492Z,14.80
2018-06-19T22:36:11.517Z,14.80
2018-06-19T22:38:40.603Z,14.70
2018-06-19T22:41:09.647Z,14.70
2018-06-19T22:43:38.711Z,14.70
2018-06-19T22:46:07.743Z,14.60
2018-06-19T22:48:36.780Z,14.60
2018-06-19T22:51:05.900Z,14.50
2018-06-19T22:53:34.964Z,14.50
2018-06-19T22:56:04.025Z,14.50
2018-06-19T22:58:33.065Z,14.40
2018-06-19T23:01:02.104Z,14.40
2018-06-19T23:03:31.183Z,14.30
2018-06-19T23:06:00.256Z,14.20
2018-06-19T23:08:33.899Z,14.20
2018-06-19T23:11:03.067Z,14.20
2018-06-19T23:13:32.156Z,14.10
2018-06-19T23:16:01.246Z,14.10
2018-06-19T23:18:30.303Z,14.10
2018-06-19T23:20:59.344Z,14.00
2018-06-19T23:23:28.390Z,14.00
2018-06-19T23:25:57.428Z,14.00
2018-06-19T23:28:26.468Z,14.00
2018-06-19T23:30:55.476Z,13.90
2018-06-19T23:33:24.530Z,13.90
2018-06-19T23:35:53.571Z,13.90
2018-06-19T23:38:22.608Z,13.90
2018-06-19T23:40:51.712Z,13.80
2018-06-19T23:43:20.715Z,13.80
2018-06-19T23:45:49.747Z,13.80
2018-06-19T23:48:18.798Z,13.70
2018-06-19T23:50:47.844Z,13.70
2018-06-19T23:53:16.852Z,13.60
2018-06-19T23:55:45.924Z,13.60
2018-06-19T23:58:14.938Z,13.50
